Time;durP1;ratioP1;P1;durP2;ratioP2;P2;SDS_P1;SDS_P2;PMS_P1;PMS_P2;Temp;Humidity;BMP_temperature;BMP_pressure;BME280_temperature;BME280_humidity;BME280_pressure;Samples;Min_cycle;Max_cycle;Signal;HPM_P1;HPM_P2
2024/03/26 00:00:11;;;;;;;30.15;28.55;;;;;;;;;;5114945;27;20713;-60
2024/03/26 00:02:37;;;;;;;29.05;27.55;;;;;;;;;;5111811;27;20518;-60
2024/03/26 00:05:03;;;;;;;31.02;29.42;;;;;;;;;;5099900;27;20096;-53
2024/03/26 00:07:28;;;;;;;30.08;28.48;;;;;;;;;;5111618;27;20448;-53
2024/03/26 00:09:54;;;;;;;30.85;29.10;;;;;;;;;;5111869;27;20050;-51
2024/03/26 00:12:19;;;;;;;28.98;27.48;;;;;;;;;;5109459;27;20039;-52
2024/03/26 00:14:46;;;;;;;31.58;29.88;;;;;;;;;;5112773;27;20126;-52
2024/03/26 00:17:12;;;;;;;29.83;28.25;;;;;;;;;;5110490;27;20042;-53
2024/03/26 00:19:38;;;;;;;28.55;27.05;;;;;;;;;;5112318;27;20641;-49
2024/03/26 00:22:03;;;;;;;30.27;28.70;;;;;;;;;;5110381;27;20105;-50
2024/03/26 00:24:29;;;;;;;27.77;26.30;;;;;;;;;;5101694;27;20035;-52
2024/03/26 00:26:54;;;;;;;29.83;28.23;;;;;;;;;;5111865;27;20115;-59
2024/03/26 00:29:19;;;;;;;28.83;27.23;;;;;;;;;;5112669;27;20035;-53
2024/03/26 00:31:45;;;;;;;29.48;27.95;;;;;;;;;;5114418;27;20116;-50
2024/03/26 00:34:10;;;;;;;31.30;29.70;;;;;;;;;;5094549;28;20067;-54
2024/03/26 00:36:35;;;;;;;29.35;27.80;;;;;;;;;;5110872;27;20035;-53
2024/03/26 00:39:01;;;;;;;30.23;28.63;;;;;;;;;;5111798;27;20063;-51
2024/03/26 00:41:26;;;;;;;30.35;28.75;;;;;;;;;;5110250;27;20034;-59
2024/03/26 00:43:51;;;;;;;32.80;31.00;;;;;;;;;;5099371;27;20078;-60
2024/03/26 00:46:17;;;;;;;32.95;31.25;;;;;;;;;;5109972;27;20502;-59
2024/03/26 00:48:42;;;;;;;31.42;29.77;;;;;;;;;;5112724;27;20563;-59
2024/03/26 00:51:08;;;;;;;33.88;32.08;;;;;;;;;;5109300;27;20039;-60
2024/03/26 00:53:33;;;;;;;31.20;29.60;;;;;;;;;;5112189;27;20020;-60
2024/03/26 00:55:58;;;;;;;33.40;31.70;;;;;;;;;;5109645;27;20085;-59
2024/03/26 00:58:24;;;;;;;34.10;32.35;;;;;;;;;;5111328;28;20122;-60
2024/03/26 01:00:49;;;;;;;36.00;34.15;;;;;;;;;;5109687;27;20039;-60
2024/03/26 01:03:15;;;;;;;36.15;34.25;;;;;;;;;;5120894;27;20023;-60
2024/03/26 01:05:49;;;;;;;35.70;33.88;;;;;;;;;;5117748;27;20418;-59
2024/03/26 01:08:15;;;;;;;34.88;33.08;;;;;;;;;;5119063;27;20020;-60
2024/03/26 01:10:40;;;;;;;34.47;32.67;;;;;;;;;;5116274;27;20054;-59
2024/03/26 01:13:05;;;;;;;33.85;32.05;;;;;;;;;;5116214;27;20043;-60
2024/03/26 01:15:31;;;;;;;34.65;32.75;;;;;;;;;;5118248;27;20031;-59
2024/03/26 01:17:56;;;;;;;39.88;37.83;;;;;;;;;;5119030;27;20031;-60
2024/03/26 01:20:21;;;;;;;36.63;34.72;;;;;;;;;;5120597;27;20494;-60
2024/03/26 01:22:46;;;;;;;38.03;36.05;;;;;;;;;;5117681;27;20074;-60
2024/03/26 01:25:12;;;;;;;40.13;38.00;;;;;;;;;;5118717;27;20042;-60
2024/03/26 01:27:37;;;;;;;36.78;34.88;;;;;;;;;;5121971;27;20036;-52
2024/03/26 01:30:03;;;;;;;36.72;34.83;;;;;;;;;;5117415;27;20634;-59
2024/03/26 01:32:28;;;;;;;38.88;36.53;;;;;;;;;;5118381;27;20035;-59
2024/03/26 01:34:53;;;;;;;38.95;36.88;;;;;;;;;;5118158;27;20016;-59
2024/03/26 01:37:19;;;;;;;36.45;34.55;;;;;;;;;;5121288;27;20031;-58
2024/03/26 01:39:45;;;;;;;39.92;36.35;;;;;;;;;;5118255;27;20047;-59
2024/03/26 01:42:10;;;;;;;36.65;34.75;;;;;;;;;;5117376;27;20027;-59
2024/03/26 01:44:35;;;;;;;39.33;37.30;;;;;;;;;;5120284;27;20042;-59
2024/03/26 01:47:01;;;;;;;37.92;36.00;;;;;;;;;;5117558;27;20027;-59
2024/03/26 01:49:30;;;;;;;36.85;34.95;;;;;;;;;;5119339;27;21155;-59
2024/03/26 01:51:57;;;;;;;36.05;34.22;;;;;;;;;;5115756;27;20675;-59
2024/03/26 01:54:22;;;;;;;35.55;33.65;;;;;;;;;;5117347;27;20085;-59
2024/03/26 01:56:48;;;;;;;36.67;34.65;;;;;;;;;;5119001;27;20644;-59
2024/03/26 01:59:13;;;;;;;36.92;34.92;;;;;;;;;;5118023;27;20031;-59
2024/03/26 02:01:39;;;;;;;36.60;34.70;;;;;;;;;;5119125;27;20516;-59
2024/03/26 02:04:04;;;;;;;35.70;33.88;;;;;;;;;;5115981;27;20106;-59
2024/03/26 02:06:29;;;;;;;36.00;34.15;;;;;;;;;;5120143;27;20030;-59
2024/03/26 02:08:57;;;;;;;35.47;33.67;;;;;;;;;;5101684;27;20015;-59
2024/03/26 02:11:24;;;;;;;37.25;35.35;;;;;;;;;;5119424;27;20036;-59
2024/03/26 02:13:49;;;;;;;36.97;34.70;;;;;;;;;;5098599;27;20023;-59
2024/03/26 02:16:14;;;;;;;36.28;34.42;;;;;;;;;;5115196;27;20039;-59
2024/03/26 02:18:40;;;;;;;35.95;34.08;;;;;;;;;;5115662;27;20028;-58
2024/03/26 02:21:05;;;;;;;37.97;35.97;;;;;;;;;;5114390;27;20106;-59
2024/03/26 02:23:31;;;;;;;38.47;36.47;;;;;;;;;;5113928;27;20027;-59
2024/03/26 02:25:56;;;;;;;35.05;33.25;;;;;;;;;;5111109;27;20059;-59
2024/03/26 02:28:21;;;;;;;35.80;34.00;;;;;;;;;;5113215;27;20028;-59
2024/03/26 02:30:47;;;;;;;35.95;33.97;;;;;;;;;;5116036;27;20111;-59
2024/03/26 02:33:12;;;;;;;35.00;33.20;;;;;;;;;;5112447;27;20066;-59
2024/03/26 02:35:37;;;;;;;34.30;32.53;;;;;;;;;;5110492;27;20759;-59
2024/03/26 02:38:03;;;;;;;36.13;34.22;;;;;;;;;;5115533;27;20042;-59
2024/03/26 02:40:28;;;;;;;34.65;32.83;;;;;;;;;;5113757;27;20039;-59
2024/03/26 02:42:53;;;;;;;34.08;32.28;;;;;;;;;;5098271;27;20035;-59
2024/03/26 02:45:19;;;;;;;34.17;32.38;;;;;;;;;;5115101;27;20035;-59
2024/03/26 02:47:44;;;;;;;36.03;34.13;;;;;;;;;;5116685;27;20419;-59
2024/03/26 02:50:09;;;;;;;35.72;33.90;;;;;;;;;;5113272;27;20114;-59
2024/03/26 02:52:35;;;;;;;34.10;32.30;;;;;;;;;;5112477;27;20041;-59
2024/03/26 02:55:01;;;;;;;33.42;31.67;;;;;;;;;;5114655;27;20102;-59
2024/03/26 02:57:26;;;;;;;36.15;34.28;;;;;;;;;;5111587;27;20035;-59
2024/03/26 02:59:52;;;;;;;34.10;32.30;;;;;;;;;;5116755;27;20031;-59
2024/03/26 03:02:17;;;;;;;35.67;33.78;;;;;;;;;;5116933;27;20591;-59
2024/03/26 03:04:42;;;;;;;35.85;34.03;;;;;;;;;;5114309;27;20036;-59
2024/03/26 03:07:07;;;;;;;36.85;34.85;;;;;;;;;;5117040;27;20030;-59
2024/03/26 03:09:33;;;;;;;36.08;34.17;;;;;;;;;;5114809;27;20027;-58
2024/03/26 03:11:58;;;;;;;36.15;34.28;;;;;;;;;;5112098;27;20042;-59
2024/03/26 03:14:23;;;;;;;35.78;33.88;;;;;;;;;;5120169;27;20046;-58
2024/03/26 03:16:49;;;;;;;37.40;35.50;;;;;;;;;;5116187;27;20054;-59
2024/03/26 03:19:14;;;;;;;34.05;32.25;;;;;;;;;;5115473;27;20046;-58
2024/03/26 03:21:40;;;;;;;35.60;33.80;;;;;;;;;;5095086;27;20031;-59
2024/03/26 03:24:05;;;;;;;33.78;31.98;;;;;;;;;;5115685;27;20046;-59
2024/03/26 03:26:31;;;;;;;36.92;35.03;;;;;;;;;;5112450;27;20517;-59
2024/03/26 03:28:56;;;;;;;34.63;32.83;;;;;;;;;;5116561;27;20034;-59
2024/03/26 03:31:22;;;;;;;38.28;36.28;;;;;;;;;;5113421;27;20040;-59
2024/03/26 03:33:47;;;;;;;34.95;33.13;;;;;;;;;;5114328;27;20037;-59
2024/03/26 03:36:12;;;;;;;38.40;36.38;;;;;;;;;;5113991;27;20106;-59
2024/03/26 03:38:38;;;;;;;36.55;34.65;;;;;;;;;;5115505;27;20054;-59
2024/03/26 03:41:03;;;;;;;36.03;34.20;;;;;;;;;;5112171;27;20070;-59
2024/03/26 03:43:28;;;;;;;36.85;34.85;;;;;;;;;;5116245;27;20524;-59
2024/03/26 03:45:54;;;;;;;37.55;35.58;;;;;;;;;;5099097;27;20100;-59
2024/03/26 03:48:19;;;;;;;37.55;35.55;;;;;;;;;;5115125;27;20080;-59
2024/03/26 03:50:44;;;;;;;36.95;35.05;;;;;;;;;;5111912;27;20034;-59
2024/03/26 03:53:10;;;;;;;37.13;35.22;;;;;;;;;;5112240;27;20445;-59
2024/03/26 03:55:35;;;;;;;36.97;35.00;;;;;;;;;;5111843;27;20356;-59
2024/03/26 03:58:01;;;;;;;40.47;38.33;;;;;;;;;;5118553;27;20053;-59
2024/03/26 04:00:26;;;;;;;34.30;32.53;;;;;;;;;;5116781;27;20019;-59
2024/03/26 04:02:52;;;;;;;35.83;33.83;;;;;;;;;;5111279;27;20050;-59
2024/03/26 04:05:17;;;;;;;36.05;34.20;;;;;;;;;;5094720;27;20051;-59
2024/03/26 04:07:42;;;;;;;35.47;33.63;;;;;;;;;;5119927;27;20088;-59
2024/03/26 04:10:08;;;;;;;34.20;32.42;;;;;;;;;;5111151;27;20040;-59
2024/03/26 04:12:33;;;;;;;33.60;31.80;;;;;;;;;;5114643;27;20074;-60
2024/03/26 04:14:58;;;;;;;34.10;32.30;;;;;;;;;;5097883;27;20031;-59
2024/03/26 04:17:24;;;;;;;34.60;32.78;;;;;;;;;;5113449;27;21205;-59
2024/03/26 04:19:49;;;;;;;33.85;32.05;;;;;;;;;;5113207;27;21058;-59
2024/03/26 04:22:15;;;;;;;36.53;34.63;;;;;;;;;;5114474;27;20423;-59
2024/03/26 04:24:40;;;;;;;35.10;33.20;;;;;;;;;;5111279;27;20027;-59
2024/03/26 04:27:06;;;;;;;36.50;34.35;;;;;;;;;;5094780;28;20051;-59
2024/03/26 04:29:31;;;;;;;36.78;34.88;;;;;;;;;;5113727;27;20027;-50
2024/03/26 04:31:56;;;;;;;37.72;35.72;;;;;;;;;;5114509;27;20035;-59
2024/03/26 04:34:22;;;;;;;37.17;35.20;;;;;;;;;;5109885;27;20489;-49
2024/03/26 04:36:51;;;;;;;35.30;33.45;;;;;;;;;;5112527;27;20035;-50
2024/03/26 04:39:16;;;;;;;36.50;34.47;;;;;;;;;;5111961;27;20023;-48
2024/03/26 04:41:41;;;;;;;36.70;34.78;;;;;;;;;;5118753;27;20411;-48
2024/03/26 04:44:07;;;;;;;38.00;36.00;;;;;;;;;;5111801;27;20525;-59
2024/03/26 04:46:32;;;;;;;34.30;32.47;;;;;;;;;;5113248;27;20672;-49
2024/03/26 04:48:57;;;;;;;35.78;33.88;;;;;;;;;;5114214;27;20027;-51
2024/03/26 04:51:23;;;;;;;35.55;33.55;;;;;;;;;;5114431;27;20067;-48
2024/03/26 04:53:48;;;;;;;36.50;34.50;;;;;;;;;;5112095;27;20346;-47
2024/03/26 04:56:14;;;;;;;36.42;34.53;;;;;;;;;;5117262;27;20490;-59
2024/03/26 04:58:40;;;;;;;34.03;32.25;;;;;;;;;;5112814;27;20039;-59
2024/03/26 05:01:06;;;;;;;35.70;33.70;;;;;;;;;;5114814;28;20034;-59
2024/03/26 05:03:31;;;;;;;35.65;33.75;;;;;;;;;;5113379;28;20408;-59
2024/03/26 05:05:56;;;;;;;34.00;32.10;;;;;;;;;;5114616;28;20077;-59
2024/03/26 05:08:21;;;;;;;31.70;30.02;;;;;;;;;;5112012;28;20023;-59
2024/03/26 05:10:47;;;;;;;31.92;30.27;;;;;;;;;;5111204;28;20060;-59
2024/03/26 05:13:13;;;;;;;34.45;32.70;;;;;;;;;;5096438;28;20091;-59
2024/03/26 05:15:39;;;;;;;33.00;31.02;;;;;;;;;;5112815;28;20063;-51
2024/03/26 05:18:04;;;;;;;36.33;34.42;;;;;;;;;;5111639;28;20439;-49
2024/03/26 05:20:29;;;;;;;33.40;31.65;;;;;;;;;;5111220;28;20123;-51
2024/03/26 05:22:55;;;;;;;32.78;31.08;;;;;;;;;;5111416;28;20055;-59
2024/03/26 05:25:20;;;;;;;33.38;31.65;;;;;;;;;;5110369;28;20072;-47
2024/03/26 05:27:45;;;;;;;33.45;31.65;;;;;;;;;;5111058;28;20039;-51
2024/03/26 05:30:11;;;;;;;31.52;29.88;;;;;;;;;;5113449;28;20073;-51
2024/03/26 05:32:36;;;;;;;34.95;33.15;;;;;;;;;;5110144;28;20042;-58
2024/03/26 05:35:02;;;;;;;33.97;32.17;;;;;;;;;;5115518;28;20033;-53
2024/03/26 05:37:27;;;;;;;35.85;34.00;;;;;;;;;;5111303;28;20031;-51
2024/03/26 05:39:53;;;;;;;32.42;30.75;;;;;;;;;;5113122;28;20035;-59
2024/03/26 05:42:18;;;;;;;34.65;32.72;;;;;;;;;;5112275;28;20074;-52
2024/03/26 05:44:43;;;;;;;33.65;31.88;;;;;;;;;;5112336;28;20034;-59
2024/03/26 05:47:09;;;;;;;34.70;32.83;;;;;;;;;;5114581;27;20043;-59
2024/03/26 05:49:34;;;;;;;34.13;32.35;;;;;;;;;;5116424;27;20042;-59
2024/03/26 05:51:59;;;;;;;33.05;31.35;;;;;;;;;;5118408;27;21051;-52
2024/03/26 05:54:25;;;;;;;31.45;29.85;;;;;;;;;;5115839;27;20036;-52
2024/03/26 05:56:50;;;;;;;33.60;31.88;;;;;;;;;;5119682;27;20023;-49
2024/03/26 05:59:16;;;;;;;35.30;33.40;;;;;;;;;;5116798;27;20058;-54
2024/03/26 06:01:41;;;;;;;34.88;33.08;;;;;;;;;;5120553;27;20035;-53
2024/03/26 06:04:06;;;;;;;30.90;29.30;;;;;;;;;;5116383;27;20031;-59
2024/03/26 06:06:31;;;;;;;28.45;26.85;;;;;;;;;;5114754;27;20034;-60
2024/03/26 06:08:57;;;;;;;28.17;26.67;;;;;;;;;;5114929;27;20094;-53
2024/03/26 06:11:22;;;;;;;29.48;27.88;;;;;;;;;;5115117;27;20027;-51
2024/03/26 06:13:47;;;;;;;29.08;27.55;;;;;;;;;;5114405;27;20031;-48
2024/03/26 06:16:14;;;;;;;28.27;26.77;;;;;;;;;;5117009;27;20167;-50
2024/03/26 06:18:39;;;;;;;28.50;27.00;;;;;;;;;;5113810;27;20050;-58
2024/03/26 06:21:05;;;;;;;28.13;26.63;;;;;;;;;;5114940;27;20039;-58
2024/03/26 06:23:31;;;;;;;28.55;27.00;;;;;;;;;;5112867;27;20929;-59
2024/03/26 06:25:57;;;;;;;29.50;27.95;;;;;;;;;;5118783;27;20039;-59
2024/03/26 06:28:23;;;;;;;30.10;28.50;;;;;;;;;;5113259;27;20629;-48
2024/03/26 06:30:48;;;;;;;26.33;24.92;;;;;;;;;;5113896;27;20141;-49
2024/03/26 06:33:14;;;;;;;27.30;25.83;;;;;;;;;;5115389;27;20126;-59
2024/03/26 06:35:40;;;;;;;30.10;28.30;;;;;;;;;;5112843;27;20483;-59
2024/03/26 06:38:07;;;;;;;30.17;28.38;;;;;;;;;;5115479;27;20039;-48
2024/03/26 06:40:32;;;;;;;29.17;27.67;;;;;;;;;;5113270;27;20287;-47
2024/03/26 06:42:58;;;;;;;28.10;26.60;;;;;;;;;;5117725;27;20110;-51
2024/03/26 06:45:23;;;;;;;31.00;29.38;;;;;;;;;;5112294;27;20035;-50
2024/03/26 06:47:48;;;;;;;30.35;28.75;;;;;;;;;;5116114;27;20034;-50
2024/03/26 06:50:14;;;;;;;28.33;26.83;;;;;;;;;;5114891;27;20353;-52
2024/03/26 06:52:39;;;;;;;30.85;29.25;;;;;;;;;;5115271;27;20085;-49
2024/03/26 06:55:05;;;;;;;30.05;28.45;;;;;;;;;;5111771;27;20035;-53
2024/03/26 06:57:31;;;;;;;27.05;25.58;;;;;;;;;;5111923;27;20080;-58
2024/03/26 06:59:58;;;;;;;31.20;29.00;;;;;;;;;;5116109;27;20107;-58
2024/03/26 07:02:24;;;;;;;31.63;29.88;;;;;;;;;;5114356;27;20035;-58
2024/03/26 07:04:49;;;;;;;32.03;30.33;;;;;;;;;;5115813;27;20578;-58
2024/03/26 07:07:15;;;;;;;31.52;29.63;;;;;;;;;;5112515;27;20043;-51
2024/03/26 07:09:41;;;;;;;30.38;28.77;;;;;;;;;;5115471;27;20037;-49
2024/03/26 07:12:07;;;;;;;30.60;29.00;;;;;;;;;;5116168;27;20153;-48
2024/03/26 07:14:33;;;;;;;30.98;29.35;;;;;;;;;;5113006;27;20047;-58
2024/03/26 07:16:58;;;;;;;33.30;31.50;;;;;;;;;;5113160;27;20059;-59
2024/03/26 07:19:23;;;;;;;35.10;33.20;;;;;;;;;;5111368;27;20046;-48
2024/03/26 07:21:49;;;;;;;31.88;29.55;;;;;;;;;;5114435;27;20115;-50
2024/03/26 07:24:14;;;;;;;30.83;29.23;;;;;;;;;;5110741;27;20064;-49
2024/03/26 07:26:40;;;;;;;30.75;29.05;;;;;;;;;;5113884;27;20039;-49
2024/03/26 07:29:05;;;;;;;33.70;31.95;;;;;;;;;;5114610;27;20365;-52
2024/03/26 07:31:30;;;;;;;33.72;31.92;;;;;;;;;;5113610;27;20092;-50
2024/03/26 07:33:56;;;;;;;38.30;36.33;;;;;;;;;;5112871;27;20036;-59
2024/03/26 07:36:21;;;;;;;35.67;33.67;;;;;;;;;;5112709;27;20043;-58
2024/03/26 07:38:46;;;;;;;40.10;38.03;;;;;;;;;;5096344;27;20126;-47
2024/03/26 07:41:12;;;;;;;41.70;39.60;;;;;;;;;;5114885;27;20038;-50
2024/03/26 07:43:37;;;;;;;38.17;36.20;;;;;;;;;;5112605;27;20089;-58
2024/03/26 07:46:02;;;;;;;36.97;35.00;;;;;;;;;;5112707;27;20036;-59
2024/03/26 07:48:29;;;;;;;38.35;36.35;;;;;;;;;;5114238;27;20030;-54
2024/03/26 07:50:54;;;;;;;40.47;38.40;;;;;;;;;;5113507;27;20483;-52
2024/03/26 07:53:19;;;;;;;38.10;36.15;;;;;;;;;;5113130;27;20035;-49
2024/03/26 07:55:45;;;;;;;39.28;37.25;;;;;;;;;;5115206;27;20055;-50
2024/03/26 07:58:10;;;;;;;38.38;36.38;;;;;;;;;;5113870;27;20032;-48
2024/03/26 08:00:35;;;;;;;42.55;40.35;;;;;;;;;;5112439;27;20035;-48
2024/03/26 08:03:01;;;;;;;39.78;37.67;;;;;;;;;;5111843;27;20042;-49
2024/03/26 08:05:26;;;;;;;41.30;39.13;;;;;;;;;;5114732;27;20031;-58
2024/03/26 08:07:53;;;;;;;40.53;38.33;;;;;;;;;;5113484;27;20019;-50
2024/03/26 08:10:18;;;;;;;44.75;42.45;;;;;;;;;;5111507;27;20488;-52
2024/03/26 08:12:45;;;;;;;42.85;40.63;;;;;;;;;;5112635;27;20032;-59
2024/03/26 08:15:11;;;;;;;42.05;39.85;;;;;;;;;;5114236;27;20416;-59
2024/03/26 08:17:36;;;;;;;44.85;42.50;;;;;;;;;;5109299;27;20059;-59
2024/03/26 08:20:02;;;;;;;45.30;42.58;;;;;;;;;;5111657;27;20069;-59
2024/03/26 08:22:27;;;;;;;41.85;39.72;;;;;;;;;;5112920;27;20032;-49
2024/03/26 08:24:53;;;;;;;43.05;40.80;;;;;;;;;;5112535;27;20043;-52
2024/03/26 08:27:18;;;;;;;41.80;39.60;;;;;;;;;;5111340;27;20074;-59
2024/03/26 08:29:43;;;;;;;43.40;41.20;;;;;;;;;;5114725;27;20181;-59
2024/03/26 08:32:09;;;;;;;44.25;42.00;;;;;;;;;;5114117;27;20089;-59
2024/03/26 08:34:34;;;;;;;40.20;38.10;;;;;;;;;;5095090;27;20035;-52
2024/03/26 08:37:00;;;;;;;44.50;42.20;;;;;;;;;;5116613;27;20126;-50
2024/03/26 08:39:25;;;;;;;43.38;40.88;;;;;;;;;;5093538;27;20039;-52
2024/03/26 08:41:50;;;;;;;46.97;44.53;;;;;;;;;;5114369;27;20457;-49
2024/03/26 08:44:16;;;;;;;37.40;35.30;;;;;;;;;;5111451;27;20484;-51
2024/03/26 08:46:42;;;;;;;37.85;35.33;;;;;;;;;;5111015;27;20058;-53
2024/03/26 08:49:07;;;;;;;39.22;37.03;;;;;;;;;;5112906;27;20027;-53
2024/03/26 08:51:32;;;;;;;38.35;36.35;;;;;;;;;;5092119;28;20505;-48
2024/03/26 08:53:58;;;;;;;38.75;36.75;;;;;;;;;;5115814;27;20035;-54
2024/03/26 08:56:24;;;;;;;40.03;37.92;;;;;;;;;;5109611;27;20043;-51
2024/03/26 08:58:55;;;;;;;41.33;38.90;;;;;;;;;;5113406;27;20035;-51
2024/03/26 09:01:21;;;;;;;42.17;40.03;;;;;;;;;;5113446;28;20047;-50
2024/03/26 09:03:46;;;;;;;39.90;37.80;;;;;;;;;;5111582;28;20040;-50
2024/03/26 09:06:12;;;;;;;41.60;39.50;;;;;;;;;;5111045;28;20031;-52
2024/03/26 09:08:37;;;;;;;42.30;40.17;;;;;;;;;;5115351;28;20063;-50
2024/03/26 09:11:03;;;;;;;45.22;42.83;;;;;;;;;;5112466;28;20461;-51
2024/03/26 09:13:29;;;;;;;44.60;42.33;;;;;;;;;;5112649;28;20479;-50
2024/03/26 09:15:54;;;;;;;46.35;43.97;;;;;;;;;;5113077;28;20039;-48
2024/03/26 09:18:20;;;;;;;46.35;44.00;;;;;;;;;;5111726;28;20084;-54
2024/03/26 09:20:45;;;;;;;47.88;45.42;;;;;;;;;;5109734;28;20043;-53
2024/03/26 09:23:10;;;;;;;51.70;49.00;;;;;;;;;;5112212;27;20096;-50
2024/03/26 09:25:36;;;;;;;49.58;46.10;;;;;;;;;;5114301;27;20034;-50
2024/03/26 09:28:01;;;;;;;53.97;51.25;;;;;;;;;;5114394;27;20046;-47
2024/03/26 09:30:27;;;;;;;51.65;49.00;;;;;;;;;;5097026;27;20047;-52
2024/03/26 09:32:56;;;;;;;55.35;52.55;;;;;;;;;;5113522;27;20466;-52
2024/03/26 09:35:21;;;;;;;45.78;43.47;;;;;;;;;;5114184;27;20027;-50
2024/03/26 09:37:47;;;;;;;43.83;41.55;;;;;;;;;;5118423;27;20480;-50
2024/03/26 09:40:13;;;;;;;49.67;47.17;;;;;;;;;;5114966;27;20051;-51
2024/03/26 09:42:40;;;;;;;49.25;46.65;;;;;;;;;;5118141;27;20032;-59
2024/03/26 09:45:07;;;;;;;48.35;45.85;;;;;;;;;;5099440;27;20087;-59
2024/03/26 09:47:34;;;;;;;47.33;44.92;;;;;;;;;;5111945;27;20039;-59
2024/03/26 09:50:02;;;;;;;36.85;34.95;;;;;;;;;;5111468;27;20039;-59
2024/03/26 09:52:32;;;;;;;37.53;35.63;;;;;;;;;;5097580;27;20032;-59
2024/03/26 09:54:58;;;;;;;43.67;41.47;;;;;;;;;;5115610;27;20055;-59
2024/03/26 09:57:25;;;;;;;37.05;35.15;;;;;;;;;;5115407;27;20055;-59
2024/03/26 09:59:50;;;;;;;33.08;31.38;;;;;;;;;;5115583;27;20027;-59
2024/03/26 10:02:17;;;;;;;29.05;27.45;;;;;;;;;;5115271;27;20112;-59
2024/03/26 10:04:42;;;;;;;30.30;28.67;;;;;;;;;;5113600;27;20142;-59
2024/03/26 10:07:08;;;;;;;25.73;24.33;;;;;;;;;;5116928;27;20114;-59
2024/03/26 10:09:33;;;;;;;28.85;27.35;;;;;;;;;;5115832;27;20726;-59
2024/03/26 10:11:59;;;;;;;25.80;24.40;;;;;;;;;;5114964;27;20032;-59
2024/03/26 10:14:24;;;;;;;27.77;26.27;;;;;;;;;;5116346;27;20030;-59
2024/03/26 10:16:49;;;;;;;28.40;26.90;;;;;;;;;;5113845;27;20035;-59
2024/03/26 10:19:15;;;;;;;26.05;24.65;;;;;;;;;;5115382;27;20503;-60
2024/03/26 10:21:46;;;;;;;24.60;23.20;;;;;;;;;;5113230;27;20035;-53
2024/03/26 10:24:12;;;;;;;21.25;20.05;;;;;;;;;;5114774;27;20114;-59
2024/03/26 10:26:37;;;;;;;22.70;21.40;;;;;;;;;;5116794;27;20738;-60
2024/03/26 10:29:03;;;;;;;21.38;20.17;;;;;;;;;;5115004;27;20027;-60
2024/03/26 10:31:29;;;;;;;21.63;20.42;;;;;;;;;;5112941;27;20059;-59
2024/03/26 10:33:56;;;;;;;20.13;19.02;;;;;;;;;;5114863;27;20054;-59
2024/03/26 10:36:21;;;;;;;22.10;20.90;;;;;;;;;;5117166;27;20479;-59
2024/03/26 10:38:49;;;;;;;21.63;20.42;;;;;;;;;;5115887;27;20031;-53
2024/03/26 10:41:22;;;;;;;21.27;20.10;;;;;;;;;;5097045;27;20456;-59
2024/03/26 10:43:49;;;;;;;21.48;20.27;;;;;;;;;;5098978;27;20821;-59
2024/03/26 10:46:15;;;;;;;22.20;21.00;;;;;;;;;;5114133;27;20031;-52
2024/03/26 10:48:42;;;;;;;22.73;21.45;;;;;;;;;;5112751;27;20023;-53
2024/03/26 10:51:09;;;;;;;22.15;20.95;;;;;;;;;;5113529;27;20061;-50
2024/03/26 10:53:34;;;;;;;21.35;20.15;;;;;;;;;;5114532;27;20028;-51
2024/03/26 10:56:01;;;;;;;23.38;21.88;;;;;;;;;;5113972;27;20038;-50
2024/03/26 10:58:26;;;;;;;21.90;20.70;;;;;;;;;;5098007;27;20031;-50
2024/03/26 11:00:53;;;;;;;20.75;19.65;;;;;;;;;;5110478;27;20035;-51
2024/03/26 11:03:19;;;;;;;22.00;20.80;;;;;;;;;;5113374;27;20467;-49
2024/03/26 11:05:45;;;;;;;20.77;19.58;;;;;;;;;;5113421;27;20133;-48
2024/03/26 11:08:17;;;;;;;21.60;20.40;;;;;;;;;;5114803;27;20035;-51
2024/03/26 11:11:04;;;;;;;21.60;20.40;;;;;;;;;;5113970;27;20066;-52
2024/03/26 11:13:34;;;;;;;20.25;19.13;;;;;;;;;;5113552;27;20027;-60
2024/03/26 11:16:00;;;;;;;21.58;20.38;;;;;;;;;;5115739;27;20031;-60
2024/03/26 11:18:29;;;;;;;21.90;20.70;;;;;;;;;;5115358;27;20054;-54
2024/03/26 11:21:12;;;;;;;22.88;21.67;;;;;;;;;;5116604;27;20136;-53
2024/03/26 11:23:43;;;;;;;20.50;19.38;;;;;;;;;;5097545;27;20456;-59
2024/03/26 11:26:21;;;;;;;21.42;20.10;;;;;;;;;;5114457;27;20627;-50
2024/03/26 11:28:46;;;;;;;20.55;19.45;;;;;;;;;;5115352;27;20027;-54
2024/03/26 11:31:11;;;;;;;22.40;21.20;;;;;;;;;;5115137;27;20550;-51
2024/03/26 11:33:37;;;;;;;22.98;21.73;;;;;;;;;;5115150;27;20070;-53
2024/03/26 11:36:03;;;;;;;21.30;19.77;;;;;;;;;;5113812;27;20067;-59
2024/03/26 11:38:29;;;;;;;23.15;21.90;;;;;;;;;;5112731;27;20039;-60
2024/03/26 11:40:55;;;;;;;21.92;20.73;;;;;;;;;;5112650;27;20045;-60
2024/03/26 11:43:20;;;;;;;21.02;19.83;;;;;;;;;;5114162;27;20047;-49
2024/03/26 11:45:46;;;;;;;22.92;21.63;;;;;;;;;;5116502;27;20427;-52
2024/03/26 11:48:15;;;;;;;20.48;19.38;;;;;;;;;;5113322;27;20023;-53
2024/03/26 11:50:41;;;;;;;21.23;20.02;;;;;;;;;;5094261;27;20035;-55
2024/03/26 11:53:07;;;;;;;22.08;20.88;;;;;;;;;;5099136;27;20034;-52
2024/03/26 11:55:32;;;;;;;21.67;20.48;;;;;;;;;;5111461;27;20437;-53
2024/03/26 11:57:58;;;;;;;22.73;21.33;;;;;;;;;;5114815;27;20941;-52
2024/03/26 12:00:24;;;;;;;22.58;21.20;;;;;;;;;;5114869;27;20077;-54
2024/03/26 12:02:49;;;;;;;24.65;23.25;;;;;;;;;;5115624;27;20038;-50
2024/03/26 12:05:14;;;;;;;21.70;20.52;;;;;;;;;;5112956;27;20035;-47
2024/03/26 12:07:41;;;;;;;23.92;22.63;;;;;;;;;;5114344;27;20030;-47
2024/03/26 12:10:08;;;;;;;26.02;24.63;;;;;;;;;;5115639;27;20038;-48
2024/03/26 12:12:38;;;;;;;26.25;24.60;;;;;;;;;;5110860;27;20512;-48
2024/03/26 12:15:11;;;;;;;27.83;26.33;;;;;;;;;;5112972;27;20047;-49
2024/03/26 12:17:39;;;;;;;29.73;28.13;;;;;;;;;;5111710;27;20032;-54
2024/03/26 12:20:09;;;;;;;30.77;29.17;;;;;;;;;;5113498;27;20043;-50
2024/03/26 12:22:34;;;;;;;34.08;32.33;;;;;;;;;;5113064;27;20039;-50
2024/03/26 12:25:08;;;;;;;39.10;37.05;;;;;;;;;;5112198;27;20396;-49
2024/03/26 12:27:34;;;;;;;28.75;27.15;;;;;;;;;;5115661;27;20110;-51
2024/03/26 12:29:59;;;;;;;47.35;44.90;;;;;;;;;;5113318;27;20134;-51
2024/03/26 12:32:28;;;;;;;50.55;47.97;;;;;;;;;;5097886;28;20582;-51
2024/03/26 12:34:53;;;;;;;52.45;49.70;;;;;;;;;;5114038;27;20038;-50
2024/03/26 12:37:18;;;;;;;40.53;38.40;;;;;;;;;;5114833;27;20035;-54
2024/03/26 12:39:44;;;;;;;37.47;35.50;;;;;;;;;;5112320;27;20053;-60
2024/03/26 12:42:09;;;;;;;52.78;50.05;;;;;;;;;;5113152;27;20516;-55
2024/03/26 12:44:35;;;;;;;106.97;101.63;;;;;;;;;;5111943;27;20045;-51
2024/03/26 12:47:00;;;;;;;49.25;46.75;;;;;;;;;;5113530;27;20424;-50
2024/03/26 12:49:26;;;;;;;93.57;88.88;;;;;;;;;;5112645;27;20103;-52
2024/03/26 12:51:56;;;;;;;69.28;65.68;;;;;;;;;;5112401;27;20063;-52
2024/03/26 12:54:23;;;;;;;43.70;41.42;;;;;;;;;;5087041;27;20039;-51
2024/03/26 12:56:48;;;;;;;59.58;56.55;;;;;;;;;;5113041;27;20039;-53
2024/03/26 12:59:14;;;;;;;37.17;35.20;;;;;;;;;;5112199;28;20100;-54
2024/03/26 13:01:39;;;;;;;30.25;28.65;;;;;;;;;;5111215;27;20032;-54
2024/03/26 13:04:05;;;;;;;35.15;33.33;;;;;;;;;;5112067;28;20496;-54
2024/03/26 13:06:30;;;;;;;34.80;32.83;;;;;;;;;;5114076;28;20037;-62
2024/03/26 13:08:55;;;;;;;30.98;29.38;;;;;;;;;;5113696;28;20030;-62
2024/03/26 13:11:21;;;;;;;33.13;31.35;;;;;;;;;;5112000;28;20081;-61
2024/03/26 13:13:48;;;;;;;33.42;31.63;;;;;;;;;;5113761;28;20201;-55
2024/03/26 13:16:14;;;;;;;34.47;32.67;;;;;;;;;;5112628;28;20031;-53
2024/03/26 13:18:40;;;;;;;41.13;39.03;;;;;;;;;;5113803;28;20042;-52
2024/03/26 13:21:07;;;;;;;36.42;34.53;;;;;;;;;;5090055;28;20114;-61
2024/03/26 13:23:32;;;;;;;44.00;41.75;;;;;;;;;;5112968;28;20031;-62
2024/03/26 13:26:01;;;;;;;45.05;42.75;;;;;;;;;;5111502;28;20035;-61
2024/03/26 13:28:26;;;;;;;38.95;36.78;;;;;;;;;;5109301;28;20031;-52
2024/03/26 13:30:52;;;;;;;38.85;36.85;;;;;;;;;;5111029;28;20487;-55
2024/03/26 13:33:18;;;;;;;41.00;38.90;;;;;;;;;;5109215;28;20067;-55
2024/03/26 13:35:43;;;;;;;45.97;43.60;;;;;;;;;;5108787;28;20071;-51
2024/03/26 13:38:08;;;;;;;40.95;38.83;;;;;;;;;;5110575;28;20047;-55
2024/03/26 13:40:34;;;;;;;43.22;41.00;;;;;;;;;;5110273;28;20023;-53
2024/03/26 13:42:59;;;;;;;35.20;33.40;;;;;;;;;;5113247;28;20092;-53
2024/03/26 13:45:24;;;;;;;38.35;36.35;;;;;;;;;;5113218;28;20093;-53
2024/03/26 13:47:50;;;;;;;35.65;33.75;;;;;;;;;;5114581;28;20027;-55
2024/03/26 13:50:16;;;;;;;43.28;41.08;;;;;;;;;;5111991;28;20472;-54
2024/03/26 13:52:41;;;;;;;58.65;55.67;;;;;;;;;;5114871;28;20043;-54
2024/03/26 13:55:07;;;;;;;50.15;47.60;;;;;;;;;;5112732;28;20126;-55
2024/03/26 13:57:32;;;;;;;53.85;51.10;;;;;;;;;;5113497;28;20074;-61
2024/03/26 13:59:58;;;;;;;71.95;68.32;;;;;;;;;;5112254;28;20254;-62
2024/03/26 14:02:23;;;;;;;44.78;42.47;;;;;;;;;;5114287;28;20046;-53
2024/03/26 14:04:49;;;;;;;54.45;51.65;;;;;;;;;;5097371;28;20030;-53
2024/03/26 14:07:15;;;;;;;46.25;43.88;;;;;;;;;;5114048;28;20039;-53